createdAt,value
2018-12-11T00:01:02.215Z,7.87
2018-12-11T00:03:30.381Z,10.27
2018-12-11T00:05:58.610Z,10.40
2018-12-11T00:08:26.891Z,7.67
2018-12-11T00:10:55.005Z,8.20
2018-12-11T00:13:23.214Z,11.93
2018-12-11T00:15:51.356Z,10.57
2018-12-11T00:18:19.534Z,11.27
2018-12-11T00:20:47.725Z,9.47
2018-12-11T00:23:15.885Z,9.67
2018-12-11T00:25:44.045Z,11.70
2018-12-11T00:28:12.266Z,12.87
2018-12-11T00:30:40.505Z,12.63
2018-12-11T00:33:08.676Z,10.73
2018-12-11T00:35:36.862Z,9.17
2018-12-11T00:38:05.022Z,8.37
2018-12-11T00:40:33.195Z,10.27
2018-12-11T00:43:01.484Z,9.67
2018-12-11T00:45:29.649Z,11.47
2018-12-11T00:47:57.809Z,9.77
2018-12-11T00:50:26.012Z,11.87
2018-12-11T00:52:54.134Z,7.30
2018-12-11T00:55:22.334Z,8.77
2018-12-11T00:57:50.544Z,9.20
2018-12-11T01:00:18.780Z,11.00
2018-12-11T01:02:46.949Z,10.10
2018-12-11T01:05:15.151Z,10.50
2018-12-11T01:07:43.308Z,9.03
2018-12-11T01:10:11.490Z,8.43
2018-12-11T01:12:39.682Z,11.93
2018-12-11T01:15:07.825Z,8.70
2018-12-11T01:17:35.992Z,16.07
2018-12-11T01:20:04.377Z,11.37
2018-12-11T01:22:32.549Z,9.47
2018-12-11T01:25:00.678Z,10.30
2018-12-11T01:27:28.924Z,9.10
2018-12-11T01:29:57.166Z,11.13
2018-12-11T01:32:25.332Z,7.73
2018-12-11T01:34:53.532Z,10.70
2018-12-11T01:37:21.684Z,6.30
2018-12-11T01:39:49.861Z,5.23
2018-12-11T01:42:18.052Z,12.10
2018-12-11T01:44:46.197Z,9.07
2018-12-11T01:47:14.373Z,9.40
2018-12-11T01:49:42.568Z,7.50
2018-12-11T01:52:10.722Z,9.40
2018-12-11T01:54:38.897Z,6.50
2018-12-11T01:57:07.097Z,8.87
2018-12-11T01:59:35.242Z,7.20
2018-12-11T02:02:03.769Z,7.23
2018-12-11T02:04:31.915Z,8.87
2018-12-11T02:07:00.076Z,5.67
2018-12-11T02:09:28.245Z,11.80
2018-12-11T02:11:56.445Z,11.17
2018-12-11T02:14:24.584Z,6.33
2018-12-11T02:16:52.776Z,12.17
2018-12-11T02:19:20.962Z,7.13
2018-12-11T02:21:49.109Z,7.27
2018-12-11T02:24:17.281Z,9.17
2018-12-11T02:26:45.419Z,13.53
2018-12-11T02:29:13.634Z,12.93
2018-12-11T02:31:41.801Z,6.93
2018-12-11T02:34:09.997Z,8.30
2018-12-11T02:36:38.153Z,11.10
2018-12-11T02:39:07.205Z,8.60
2018-12-11T02:41:35.520Z,11.33
2018-12-11T02:44:03.918Z,8.40
2018-12-11T02:46:32.182Z,9.80
2018-12-11T02:49:00.385Z,11.20
2018-12-11T02:51:28.623Z,9.03
2018-12-11T02:53:56.733Z,12.23
2018-12-11T02:56:24.906Z,7.60
2018-12-11T02:58:53.041Z,5.50
2018-12-11T03:01:21.221Z,7.50
2018-12-11T03:03:49.421Z,12.63
2018-12-11T03:06:17.562Z,7.00
2018-12-11T03:08:45.739Z,7.20
2018-12-11T03:11:14.034Z,11.03
2018-12-11T03:13:42.185Z,10.63
2018-12-11T03:16:10.365Z,6.73
2018-12-11T03:18:38.549Z,8.80
2018-12-11T03:21:06.706Z,9.87
2018-12-11T03:23:34.982Z,5.47
2018-12-11T03:26:03.190Z,9.00
2018-12-11T03:28:31.320Z,8.97
2018-12-11T03:30:59.517Z,6.73
2018-12-11T03:33:27.800Z,6.70
2018-12-11T03:35:56.044Z,7.37
2018-12-11T03:38:24.225Z,8.53
2018-12-11T03:40:52.414Z,7.30
2018-12-11T03:43:20.675Z,10.07
2018-12-11T03:45:48.950Z,5.83
2018-12-11T03:48:17.179Z,8.67
2018-12-11T03:50:45.406Z,12.03
2018-12-11T03:53:13.518Z,10.00
2018-12-11T03:55:41.671Z,5.67
2018-12-11T03:58:09.912Z,9.20
2018-12-11T04:00:38.098Z,9.60
2018-12-11T04:03:06.292Z,9.03
2018-12-11T04:05:34.441Z,8.63
2018-12-11T04:08:02.608Z,7.27
2018-12-11T04:10:30.822Z,12.60
2018-12-11T04:12:58.970Z,7.77
2018-12-11T04:15:27.242Z,7.83
2018-12-11T04:17:55.551Z,9.00
2018-12-11T04:20:23.689Z,11.10
2018-12-11T04:22:51.864Z,10.40
2018-12-11T04:25:20.060Z,9.13
2018-12-11T04:27:48.220Z,8.47
2018-12-11T04:30:16.397Z,9.87
2018-12-11T04:32:44.589Z,6.40
2018-12-11T04:35:12.738Z,6.30
2018-12-11T04:37:40.912Z,6.83
2018-12-11T04:40:09.154Z,6.53
2018-12-11T04:42:37.353Z,9.77
2018-12-11T04:45:05.894Z,13.37
2018-12-11T04:48:37.530Z,9.87
2018-12-11T04:51:05.673Z,5.47
2018-12-11T04:53:33.800Z,7.17
2018-12-11T04:56:02.048Z,6.33
2018-12-11T04:58:30.201Z,6.70
2018-12-11T05:00:58.367Z,8.83
2018-12-11T05:03:26.662Z,13.90
2018-12-11T05:05:54.821Z,10.00
2018-12-11T05:08:22.989Z,5.03
2018-12-11T05:10:51.193Z,5.63
2018-12-11T05:13:19.353Z,10.37
2018-12-11T05:15:47.500Z,4.60
2018-12-11T05:18:15.731Z,6.20
2018-12-11T05:20:43.949Z,7.73
2018-12-11T05:23:12.116Z,6.77
2018-12-11T05:25:40.320Z,6.40
2018-12-11T05:28:08.471Z,8.13
2018-12-11T05:30:36.640Z,8.20
2018-12-11T05:33:04.854Z,4.57
2018-12-11T05:35:32.993Z,6.13
2018-12-11T05:38:01.265Z,7.53
2018-12-11T05:40:29.457Z,5.87
2018-12-11T05:42:57.617Z,10.73
2018-12-11T05:45:25.781Z,6.93
2018-12-11T05:47:53.985Z,8.27
2018-12-11T05:50:22.141Z,4.83
2018-12-11T05:52:50.308Z,14.27
2018-12-11T05:55:18.517Z,6.93
2018-12-11T05:57:46.653Z,5.23
2018-12-11T06:00:14.924Z,6.60
2018-12-11T06:02:43.133Z,7.13
2018-12-11T06:05:11.379Z,7.17
2018-12-11T06:07:39.661Z,7.60
2018-12-11T06:10:08.638Z,9.80
2018-12-11T06:12:36.822Z,7.13
2018-12-11T06:15:05.022Z,11.67
2018-12-11T06:17:33.200Z,5.57
2018-12-11T06:20:01.336Z,8.17
2018-12-11T06:22:29.513Z,6.20
2018-12-11T06:24:57.708Z,7.90
2018-12-11T06:27:25.965Z,10.33
2018-12-11T06:29:54.218Z,7.70
2018-12-11T06:32:22.428Z,7.63
2018-12-11T06:34:50.580Z,6.20
2018-12-11T06:37:18.744Z,6.80
2018-12-11T06:39:46.961Z,8.53
2018-12-11T06:42:15.175Z,6.17
2018-12-11T06:44:43.481Z,19.60
2018-12-11T06:47:11.724Z,8.43
2018-12-11T06:49:39.930Z,6.77
2018-12-11T06:52:08.205Z,7.40
2018-12-11T06:54:36.344Z,8.53
2018-12-11T06:57:04.557Z,8.57
2018-12-11T06:59:32.722Z,7.57
2018-12-11T07:02:01.024Z,7.30
2018-12-11T07:04:29.173Z,5.83
2018-12-11T07:06:57.349Z,11.17
2018-12-11T07:09:25.537Z,11.63
2018-12-11T07:11:53.692Z,10.00
2018-12-11T07:14:21.869Z,7.57
2018-12-11T07:16:50.063Z,7.77
2018-12-11T07:19:18.212Z,10.03
2018-12-11T07:21:46.389Z,11.40
2018-12-11T07:24:14.593Z,10.40
2018-12-11T07:26:42.732Z,8.90
2018-12-11T07:29:10.906Z,8.93
2018-12-11T07:31:39.298Z,12.27
2018-12-11T07:34:07.456Z,8.50
2018-12-11T07:36:35.729Z,8.63
2018-12-11T07:39:05.320Z,11.00
2018-12-11T07:41:33.520Z,7.50
2018-12-11T07:44:01.688Z,9.93
2018-12-11T07:46:29.888Z,7.43
2018-12-11T07:48:58.133Z,9.50
2018-12-11T07:51:26.311Z,8.93
2018-12-11T07:53:54.508Z,8.20
2018-12-11T07:56:22.657Z,7.97
2018-12-11T07:58:50.936Z,9.50
2018-12-11T08:01:19.124Z,8.13
2018-12-11T08:03:47.281Z,4.93
2018-12-11T08:06:15.452Z,7.90
2018-12-11T08:08:43.662Z,4.73
2018-12-11T08:11:11.817Z,6.80
2018-12-11T08:13:39.968Z,7.03
2018-12-11T08:16:08.164Z,7.83
2018-12-11T08:18:36.322Z,8.73
2018-12-11T08:21:04.497Z,7.83
2018-12-11T08:23:32.687Z,8.83
2018-12-11T08:26:00.795Z,4.67
2018-12-11T08:28:29.012Z,6.03
2018-12-11T08:30:57.224Z,8.87
2018-12-11T08:33:25.358Z,5.70
2018-12-11T08:35:53.532Z,8.90
2018-12-11T08:38:21.724Z,6.63
2018-12-11T08:40:49.868Z,5.27
2018-12-11T08:43:18.053Z,6.97
2018-12-11T08:45:46.300Z,6.30
2018-12-11T08:48:14.505Z,8.50
2018-12-11T08:50:42.781Z,7.87
2018-12-11T08:53:10.974Z,7.47
2018-12-11T08:55:39.156Z,7.33
2018-12-11T08:58:07.402Z,4.07
2018-12-11T09:00:35.598Z,7.17
2018-12-11T09:03:03.755Z,5.80
2018-12-11T09:05:31.925Z,5.67
2018-12-11T09:08:00.104Z,6.70
2018-12-11T09:10:28.269Z,6.33
2018-12-11T09:12:56.445Z,6.33
2018-12-11T09:15:24.653Z,6.00
2018-12-11T09:17:52.777Z,5.13
2018-12-11T09:20:21.061Z,7.03
2018-12-11T09:22:49.256Z,5.53
2018-12-11T09:25:17.413Z,9.30
2018-12-11T09:27:45.581Z,4.83
2018-12-11T09:30:13.781Z,5.93
2018-12-11T09:32:41.927Z,6.93
2018-12-11T09:35:10.201Z,6.70
2018-12-11T09:37:38.413Z,5.60
2018-12-11T09:40:06.669Z,10.07
2018-12-11T09:42:34.825Z,8.80
2018-12-11T09:45:03.045Z,8.13
2018-12-11T09:47:31.177Z,10.47
2018-12-11T09:49:59.345Z,7.23
2018-12-11T09:52:27.540Z,5.93
2018-12-11T09:54:55.659Z,6.63
2018-12-11T09:57:23.868Z,6.70
2018-12-11T09:59:52.175Z,8.67
2018-12-11T10:02:20.428Z,7.97
2018-12-11T10:04:48.597Z,8.30
2018-12-11T10:07:16.793Z,7.10
2018-12-11T10:09:44.937Z,7.50
2018-12-11T10:12:13.117Z,5.30
2018-12-11T10:14:41.311Z,7.57
2018-12-11T10:17:09.460Z,7.80
2018-12-11T10:19:37.628Z,5.40
2018-12-11T10:22:05.848Z,6.90
2018-12-11T10:24:33.977Z,7.33
2018-12-11T10:27:02.149Z,7.07
2018-12-11T10:29:30.352Z,5.47
2018-12-11T10:31:58.501Z,8.30
2018-12-11T10:34:26.675Z,6.83
2018-12-11T10:36:54.869Z,9.43
2018-12-11T10:39:23.028Z,6.73
2018-12-11T10:41:51.197Z,6.07
2018-12-11T10:44:19.398Z,5.57
2018-12-11T10:46:47.537Z,6.00
2018-12-11T10:49:15.707Z,5.83
2018-12-11T10:51:43.908Z,4.47
2018-12-11T10:54:12.069Z,3.77
2018-12-11T10:56:40.233Z,5.23
2018-12-11T10:59:08.433Z,5.87
2018-12-11T11:01:40.193Z,3.83
2018-12-11T11:04:08.459Z,7.87
2018-12-11T11:06:36.633Z,3.73
2018-12-11T11:09:07.085Z,4.67
2018-12-11T11:11:35.236Z,5.93
2018-12-11T11:14:03.385Z,3.07
2018-12-11T11:16:31.571Z,3.87
2018-12-11T11:18:59.857Z,3.73
2018-12-11T11:21:28.014Z,3.63
2018-12-11T11:23:56.577Z,3.13
2018-12-11T11:26:24.798Z,8.77
2018-12-11T11:28:52.937Z,3.90
2018-12-11T11:31:21.109Z,6.60
2018-12-11T11:33:49.311Z,5.40
2018-12-11T11:36:17.457Z,4.63
2018-12-11T11:38:45.728Z,5.83
2018-12-11T11:44:03.000Z,5.63
2018-12-11T11:46:31.150Z,12.37
2018-12-11T11:48:59.312Z,6.10
2018-12-11T11:51:27.508Z,7.10
2018-12-11T11:53:55.665Z,5.30
2018-12-11T12:03:27.495Z,6.57
2018-12-11T12:05:55.645Z,4.67
2018-12-11T12:08:23.818Z,5.00
2018-12-11T12:10:52.009Z,4.27
2018-12-11T12:13:20.161Z,5.43
2018-12-11T12:15:48.336Z,4.10
2018-12-11T12:18:16.533Z,5.17
2018-12-11T12:20:44.686Z,7.40
2018-12-11T12:23:12.856Z,6.17
2018-12-11T12:25:41.063Z,8.43
2018-12-11T12:28:09.206Z,5.10
2018-12-11T12:30:37.796Z,7.10
2018-12-11T12:33:05.980Z,7.43
2018-12-11T12:35:34.233Z,4.13
2018-12-11T12:38:02.417Z,5.27
2018-12-11T12:40:30.597Z,5.67
2018-12-11T12:42:58.857Z,4.47
2018-12-11T12:45:27.032Z,5.50
2018-12-11T12:47:55.222Z,5.13
2018-12-11T12:50:23.376Z,4.27
2018-12-11T12:52:51.553Z,5.57
2018-12-11T12:55:19.745Z,8.47
2018-12-11T12:57:47.897Z,8.53
2018-12-11T13:00:16.068Z,5.77
2018-12-11T13:02:49.684Z,8.47
2018-12-11T13:05:14.464Z,4.60
2018-12-11T13:07:42.637Z,5.13
2018-12-11T13:10:10.845Z,5.90
2018-12-11T13:12:39.060Z,5.37
2018-12-11T13:15:07.797Z,5.93
2018-12-11T13:17:36.064Z,6.60
2018-12-11T13:20:04.272Z,6.60
2018-12-11T13:22:32.441Z,10.87
2018-12-11T13:25:00.592Z,5.93
2018-12-11T13:27:28.740Z,6.27
2018-12-11T13:29:56.913Z,7.30
2018-12-11T13:32:25.113Z,4.17
2018-12-11T13:34:53.253Z,5.30
2018-12-11T13:37:21.532Z,3.83
2018-12-11T13:39:49.833Z,6.57
2018-12-11T13:42:17.994Z,6.33
2018-12-11T13:44:46.273Z,4.37
2018-12-11T13:47:14.459Z,8.07
2018-12-11T13:49:42.732Z,9.83
2018-12-11T13:52:10.966Z,5.00
2018-12-11T13:54:39.203Z,4.40
2018-12-11T13:57:07.328Z,6.60
2018-12-11T13:59:35.516Z,4.00
2018-12-11T14:02:03.652Z,4.67
2018-12-11T14:04:31.861Z,4.87
2018-12-11T14:07:00.025Z,7.70
2018-12-11T14:09:33.622Z,4.17
2018-12-11T14:12:03.599Z,4.00
2018-12-11T14:14:32.844Z,4.37
2018-12-11T14:17:02.123Z,5.37
2018-12-11T14:19:32.188Z,4.00
2018-12-11T14:22:01.957Z,3.83
2018-12-11T14:24:31.760Z,5.40
2018-12-11T14:27:01.589Z,5.57
2018-12-11T14:29:30.967Z,4.40
2018-12-11T14:32:00.891Z,5.27
2018-12-11T14:34:30.711Z,2.80
2018-12-11T14:37:00.422Z,4.17
2018-12-11T14:39:29.356Z,2.80
2018-12-11T14:41:59.342Z,4.03
2018-12-11T14:44:29.466Z,9.60
2018-12-11T14:46:59.566Z,3.93
2018-12-11T14:49:29.342Z,4.97
2018-12-11T14:51:59.865Z,6.07
2018-12-11T14:54:29.306Z,5.97
2018-12-11T14:56:58.932Z,3.90
2018-12-11T14:59:28.819Z,5.93
2018-12-11T15:01:58.830Z,7.80
2018-12-11T15:04:27.031Z,5.20
2018-12-11T15:06:55.224Z,7.87
2018-12-11T15:09:28.968Z,8.17
2018-12-11T15:11:57.257Z,23.10
2018-12-11T15:14:25.465Z,21.37
2018-12-11T15:16:53.641Z,22.60
2018-12-11T15:19:21.834Z,14.03
2018-12-11T15:21:49.984Z,9.57
2018-12-11T15:24:18.157Z,7.53
2018-12-11T15:26:46.345Z,9.40
2018-12-11T15:29:14.573Z,8.47
2018-12-11T15:31:42.705Z,6.70
2018-12-11T15:34:10.945Z,10.60
2018-12-11T15:36:39.128Z,7.17
2018-12-11T15:39:07.293Z,8.77
2018-12-11T15:41:35.603Z,6.50
2018-12-11T15:44:03.745Z,7.50
2018-12-11T15:46:32.200Z,7.17
2018-12-11T15:49:00.437Z,8.03
2018-12-11T15:51:28.992Z,7.90
2018-12-11T15:53:57.253Z,5.93
2018-12-11T15:56:25.456Z,7.63
2018-12-11T15:58:53.607Z,7.73
2018-12-11T16:01:21.897Z,13.90
2018-12-11T16:03:50.085Z,13.13
2018-12-11T16:06:18.253Z,12.83
2018-12-11T16:08:46.438Z,7.53
2018-12-11T16:11:14.625Z,18.97
2018-12-11T16:13:42.770Z,9.53
2018-12-11T16:16:10.933Z,10.80
2018-12-11T16:18:39.153Z,22.87
2018-12-11T16:21:07.305Z,15.43
2018-12-11T16:23:35.485Z,13.20
2018-12-11T16:26:03.676Z,25.13
2018-12-11T16:28:31.926Z,11.27
2018-12-11T16:31:00.106Z,24.67
2018-12-11T16:33:28.300Z,15.00
2018-12-11T16:35:56.536Z,11.67
2018-12-11T16:38:24.816Z,11.97
2018-12-11T16:40:53.013Z,9.23
2018-12-11T16:43:21.158Z,14.10
2018-12-11T16:45:49.348Z,11.40
2018-12-11T16:48:17.573Z,18.00
2018-12-11T16:50:45.781Z,11.07
2018-12-11T16:53:14.073Z,10.23
2018-12-11T16:55:42.353Z,13.20
2018-12-11T16:58:10.881Z,8.23
2018-12-11T17:00:39.095Z,11.97
2018-12-11T17:03:07.262Z,8.53
2018-12-11T17:05:35.434Z,9.47
2018-12-11T17:08:03.604Z,8.57
2018-12-11T17:10:31.800Z,14.63
2018-12-11T17:13:00.043Z,9.60
2018-12-11T17:15:28.718Z,8.13
2018-12-11T17:17:56.934Z,9.80
2018-12-11T17:20:26.278Z,9.13
2018-12-11T17:22:54.492Z,12.33
2018-12-11T17:25:22.883Z,10.53
2018-12-11T17:27:51.038Z,12.07
2018-12-11T17:30:19.310Z,7.67
2018-12-11T17:32:47.520Z,9.57
2018-12-11T17:35:15.684Z,9.20
2018-12-11T17:37:43.929Z,9.87
2018-12-11T17:40:12.125Z,10.43
2018-12-11T17:42:40.418Z,11.47
2018-12-11T17:45:08.650Z,8.77
2018-12-11T17:47:36.881Z,11.17
2018-12-11T17:50:06.713Z,6.90
2018-12-11T17:52:34.957Z,10.80
2018-12-11T17:55:03.536Z,15.17
2018-12-11T17:57:31.734Z,9.77
2018-12-11T17:59:59.949Z,9.70
2018-12-11T18:02:35.461Z,11.60
2018-12-11T18:05:04.618Z,14.13
2018-12-11T18:07:32.780Z,8.90
2018-12-11T18:10:00.986Z,8.27
2018-12-11T18:12:29.233Z,11.10
2018-12-11T18:14:58.027Z,12.20
2018-12-11T18:17:26.542Z,14.30
2018-12-11T18:19:54.893Z,13.20
2018-12-11T18:22:23.057Z,10.33
2018-12-11T18:24:51.289Z,14.07
2018-12-11T18:27:19.476Z,13.67
2018-12-11T18:29:47.704Z,20.80
2018-12-11T18:32:16.158Z,10.07
2018-12-11T18:34:45.661Z,14.33
2018-12-11T18:37:14.153Z,11.20
2018-12-11T18:39:42.308Z,11.47
2018-12-11T18:42:10.720Z,13.30
2018-12-11T18:44:38.974Z,10.83
2018-12-11T18:47:07.133Z,13.13
2018-12-11T18:49:35.312Z,14.67
2018-12-11T18:52:03.468Z,13.67
2018-12-11T18:54:31.694Z,17.37
2018-12-11T18:56:59.929Z,15.33
2018-12-11T18:59:28.090Z,15.43
2018-12-11T19:01:56.285Z,14.53
2018-12-11T19:04:24.450Z,13.47
2018-12-11T19:06:52.724Z,13.80
2018-12-11T19:09:20.904Z,16.27
2018-12-11T19:11:49.078Z,16.97
2018-12-11T19:14:17.317Z,18.40
2018-12-11T19:16:45.561Z,12.87
2018-12-11T19:19:13.966Z,15.37
2018-12-11T19:21:42.188Z,17.97
2018-12-11T19:24:22.518Z,13.73
2018-12-11T19:26:50.714Z,12.30
2018-12-11T19:29:18.889Z,16.47
2018-12-11T19:31:47.118Z,13.87
2018-12-11T19:34:15.328Z,20.50
2018-12-11T19:36:43.513Z,14.33
2018-12-11T19:39:11.788Z,13.93
2018-12-11T19:41:39.932Z,18.40
2018-12-11T19:44:08.226Z,14.57
2018-12-11T19:46:36.446Z,17.57
2018-12-11T19:49:04.773Z,18.13
2018-12-11T19:51:33.189Z,14.17
2018-12-11T19:54:01.760Z,15.10
2018-12-11T19:56:30.179Z,16.03
2018-12-11T19:58:58.769Z,14.90
2018-12-11T20:01:26.997Z,16.33
2018-12-11T20:03:55.180Z,18.20
2018-12-11T20:06:23.429Z,14.63
2018-12-11T20:08:51.618Z,13.17
2018-12-11T20:11:19.777Z,14.77
2018-12-11T20:13:48.175Z,15.90
2018-12-11T20:16:16.471Z,19.13
2018-12-11T20:18:44.704Z,17.27
2018-12-11T20:21:13.546Z,14.20
2018-12-11T20:23:41.785Z,15.50
2018-12-11T20:26:09.930Z,15.63
2018-12-11T20:28:38.101Z,17.33
2018-12-11T20:31:06.313Z,13.93
2018-12-11T20:33:34.450Z,16.00
2018-12-11T20:36:02.710Z,19.83
2018-12-11T20:38:30.938Z,19.70
2018-12-11T20:40:59.180Z,13.63
2018-12-11T20:43:27.628Z,17.17
2018-12-11T20:45:56.021Z,16.20
2018-12-11T20:48:24.483Z,14.67
2018-12-11T20:50:52.741Z,12.47
2018-12-11T20:53:20.992Z,13.77
2018-12-11T20:55:49.205Z,18.57
2018-12-11T20:58:17.484Z,14.40
2018-12-11T21:00:45.729Z,13.43
2018-12-11T21:03:13.865Z,13.53
2018-12-11T21:05:42.038Z,15.10
2018-12-11T21:08:10.249Z,19.47
2018-12-11T21:10:38.401Z,16.87
2018-12-11T21:13:06.561Z,14.80
2018-12-11T21:15:34.740Z,18.90
2018-12-11T21:18:02.905Z,12.77
2018-12-11T21:20:31.172Z,13.90
2018-12-11T21:22:59.380Z,16.80
2018-12-11T21:25:27.525Z,18.10
2018-12-11T21:27:55.697Z,16.03
2018-12-11T21:30:23.900Z,16.70
2018-12-11T21:32:52.044Z,14.60
2018-12-11T21:35:20.221Z,11.87
2018-12-11T21:37:48.409Z,11.90
2018-12-11T21:40:16.588Z,16.97
2018-12-11T21:42:44.740Z,18.23
2018-12-11T21:45:12.932Z,11.53
2018-12-11T21:47:41.110Z,20.57
2018-12-11T21:50:09.308Z,12.83
2018-12-11T21:52:37.565Z,13.87
2018-12-11T21:55:06.808Z,15.53
2018-12-11T21:57:35.019Z,15.00
2018-12-11T22:00:03.688Z,10.67
2018-12-11T22:02:31.870Z,13.17
2018-12-11T22:05:00.060Z,11.53
2018-12-11T22:07:28.237Z,13.43
2018-12-11T22:09:56.381Z,11.67
2018-12-11T22:12:24.837Z,12.37
2018-12-11T22:14:53.072Z,12.77
2018-12-11T22:17:21.324Z,13.33
2018-12-11T22:19:49.485Z,11.57
2018-12-11T22:22:17.684Z,9.97
2018-12-11T22:24:45.828Z,13.83
2018-12-11T22:27:14.341Z,11.00
2018-12-11T22:29:42.599Z,17.73
2018-12-11T22:32:10.761Z,12.03
2018-12-11T22:34:38.932Z,11.80
2018-12-11T22:37:07.145Z,16.10
2018-12-11T22:39:35.482Z,9.73
2018-12-11T22:42:03.661Z,11.63
2018-12-11T22:44:31.882Z,11.87
2018-12-11T22:47:00.014Z,15.57
2018-12-11T22:49:28.181Z,16.63
2018-12-11T22:51:56.386Z,13.97
2018-12-11T22:54:24.801Z,15.73
2018-12-11T22:56:53.005Z,13.23
2018-12-11T22:59:21.212Z,15.30
2018-12-11T23:01:49.357Z,15.83
2018-12-11T23:04:17.471Z,18.43
2018-12-11T23:06:45.620Z,12.10
2018-12-11T23:09:13.772Z,15.77
2018-12-11T23:11:41.948Z,16.67
2018-12-11T23:14:10.156Z,15.70
2018-12-11T23:16:38.396Z,17.77
2018-12-11T23:19:06.684Z,16.40
2018-12-11T23:21:34.876Z,17.87
2018-12-11T23:24:03.928Z,13.63
2018-12-11T23:26:32.117Z,13.97
2018-12-11T23:29:00.314Z,17.20
2018-12-11T23:38:28.256Z,12.63
2018-12-11T23:40:57.017Z,16.27
2018-12-11T23:43:26.966Z,15.77
2018-12-11T23:45:56.640Z,15.73
2018-12-11T23:48:25.253Z,18.63
2018-12-11T23:50:57.111Z,19.93
2018-12-11T23:53:26.128Z,19.00
2018-12-11T23:55:59.484Z,16.63
2018-12-11T23:58:28.312Z,16.43
